createdAt,value
2023-04-16T00:00:45.818Z,17.13
2023-04-16T00:05:43.164Z,17.20
2023-04-16T00:10:39.911Z,17.25
2023-04-16T00:15:39.403Z,16.59
2023-04-16T00:20:36.287Z,16.16
2023-04-16T00:25:33.793Z,16.07
2023-04-16T00:30:30.640Z,16.03
2023-04-16T00:35:27.348Z,14.81
2023-04-16T00:40:27.041Z,14.87
2023-04-16T00:45:24.221Z,15.19
2023-04-16T00:50:21.469Z,15.03
2023-04-16T00:55:18.722Z,14.91
2023-04-16T01:00:15.594Z,15.02
2023-04-16T01:05:12.869Z,15.31
2023-04-16T01:10:09.498Z,15.45
2023-04-16T01:15:06.966Z,15.57
2023-04-16T01:20:03.744Z,15.76
2023-04-16T01:25:01.125Z,16.01
2023-04-16T01:29:57.787Z,16.01
2023-04-16T01:35:07.080Z,15.88
2023-04-16T01:40:04.878Z,15.70
2023-04-16T01:45:01.633Z,15.37
2023-04-16T01:49:59.147Z,15.34
2023-04-16T01:54:55.878Z,15.44
2023-04-16T01:59:53.165Z,15.59
2023-04-16T02:04:51.359Z,15.48
2023-04-16T02:09:49.626Z,15.59
2023-04-16T02:14:46.171Z,15.71
2023-04-16T02:19:45.835Z,15.87
2023-04-16T02:24:42.455Z,15.79
2023-04-16T02:29:40.644Z,15.48
2023-04-16T02:34:43.131Z,15.68
2023-04-16T02:39:43.278Z,15.86
2023-04-16T02:44:39.970Z,16.04
2023-04-16T02:49:36.732Z,15.45
2023-04-16T02:54:33.506Z,14.85
2023-04-16T02:59:32.099Z,14.80
2023-04-16T03:04:30.160Z,14.83
2023-04-16T03:09:26.920Z,14.96
2023-04-16T03:14:23.566Z,14.90
2023-04-16T03:19:21.048Z,14.84
2023-04-16T03:24:17.629Z,14.84
2023-04-16T03:29:14.322Z,14.54
2023-04-16T03:34:11.761Z,14.05
2023-04-16T03:39:11.080Z,13.87
2023-04-16T03:44:08.142Z,13.55
2023-04-16T03:49:05.343Z,13.43
2023-04-16T03:54:02.139Z,13.55
2023-04-16T03:59:03.104Z,13.45
2023-04-16T04:04:00.240Z,13.55
2023-04-16T04:08:56.996Z,13.13
2023-04-16T04:13:56.684Z,13.04
2023-04-16T04:18:55.066Z,13.01
2023-04-16T04:23:53.911Z,12.89
2023-04-16T04:28:51.417Z,13.05
2023-04-16T04:33:48.925Z,13.10
2023-04-16T04:38:46.914Z,13.39
2023-04-16T04:43:45.502Z,13.59
2023-04-16T04:48:42.395Z,14.26
2023-04-16T04:53:39.221Z,14.46
2023-04-16T04:58:38.257Z,14.60
2023-04-16T05:03:35.177Z,14.00
2023-04-16T05:08:31.835Z,14.16
2023-04-16T05:13:28.504Z,14.64
2023-04-16T05:18:27.987Z,14.50
2023-04-16T05:23:24.704Z,14.72
2023-04-16T05:28:21.445Z,14.62
2023-04-16T05:33:18.225Z,14.73
2023-04-16T05:38:15.527Z,15.10
2023-04-16T05:43:13.459Z,15.70
2023-04-16T05:48:13.281Z,15.79
2023-04-16T05:53:10.355Z,15.97
2023-04-16T05:58:07.639Z,16.03
2023-04-16T06:03:04.662Z,16.03
2023-04-16T06:08:01.335Z,16.19
2023-04-16T06:12:57.987Z,16.31
2023-04-16T06:17:55.692Z,16.47
2023-04-16T06:22:52.321Z,16.75
2023-04-16T06:27:48.989Z,17.00
2023-04-16T06:32:47.041Z,16.80
2023-04-16T06:37:44.505Z,17.09
2023-04-16T06:42:43.576Z,17.43
2023-04-16T06:47:41.995Z,17.60
2023-04-16T06:52:38.858Z,17.54
2023-04-16T06:57:37.508Z,17.53
2023-04-16T07:02:35.087Z,17.53
2023-04-16T07:07:32.155Z,17.46
2023-04-16T07:12:28.786Z,17.67
2023-04-16T07:17:26.124Z,17.72
2023-04-16T07:22:22.786Z,17.72
2023-04-16T07:27:21.476Z,18.00
2023-04-16T07:32:18.158Z,18.05
2023-04-16T07:37:19.779Z,17.98
2023-04-16T07:42:16.465Z,18.24
2023-04-16T07:47:13.051Z,18.37
2023-04-16T07:52:09.824Z,18.46
2023-04-16T07:57:08.412Z,18.70
2023-04-16T08:02:05.668Z,18.77
2023-04-16T08:07:02.357Z,19.10
2023-04-16T08:12:00.114Z,19.34
2023-04-16T08:16:57.385Z,19.48
2023-04-16T08:21:54.372Z,19.58
2023-04-16T08:26:53.523Z,19.97
2023-04-16T08:31:50.322Z,19.96
2023-04-16T08:36:47.924Z,20.03
2023-04-16T08:41:46.303Z,20.26
2023-04-16T08:46:44.106Z,19.93
2023-04-16T08:51:41.838Z,20.12
2023-04-16T08:56:42.993Z,20.12
2023-04-16T09:01:43.704Z,20.43
2023-04-16T09:06:41.077Z,20.57
2023-04-16T09:11:38.913Z,20.77
2023-04-16T09:16:36.886Z,20.88
2023-04-16T09:21:35.695Z,20.73
2023-04-16T09:26:32.604Z,20.97
2023-04-16T09:31:31.680Z,20.95
2023-04-16T09:36:32.377Z,20.98
2023-04-16T09:41:30.170Z,21.37
2023-04-16T09:46:29.875Z,21.37
2023-04-16T09:51:27.834Z,21.67
2023-04-16T09:56:27.369Z,21.78
2023-04-16T10:01:24.392Z,21.51
2023-04-16T10:06:22.391Z,21.50
2023-04-16T10:11:20.729Z,21.64
2023-04-16T10:16:18.133Z,21.59
2023-04-16T10:21:16.618Z,21.49
2023-04-16T10:26:13.414Z,21.71
2023-04-16T10:31:11.313Z,21.78
2023-04-16T10:36:10.549Z,21.77
2023-04-16T10:41:08.734Z,21.74
2023-04-16T10:46:18.871Z,21.86
2023-04-16T10:51:27.194Z,21.80
2023-04-16T10:56:24.766Z,21.59
2023-04-16T11:01:26.821Z,21.37
2023-04-16T11:06:25.761Z,20.76
2023-04-16T11:11:22.543Z,20.22
2023-04-16T11:16:19.149Z,20.11
2023-04-16T11:21:16.730Z,20.04
2023-04-16T11:26:20.967Z,19.65
2023-04-16T11:31:17.729Z,19.66
2023-04-16T11:36:14.447Z,19.35
2023-04-16T11:41:19.075Z,18.86
2023-04-16T11:46:26.733Z,18.76
2023-04-16T11:51:24.315Z,18.97
2023-04-16T11:56:27.921Z,18.91
2023-04-16T12:01:25.421Z,18.51
2023-04-16T12:06:23.296Z,18.31
2023-04-16T12:11:21.726Z,18.54
2023-04-16T12:16:20.021Z,18.44
2023-04-16T12:21:17.573Z,18.66
2023-04-16T12:26:14.564Z,18.34
2023-04-16T12:31:11.544Z,18.31
2023-04-16T12:36:19.014Z,18.73
2023-04-16T12:41:15.621Z,18.70
2023-04-16T12:46:12.343Z,18.89
2023-04-16T12:51:09.029Z,19.30
2023-04-16T12:56:06.366Z,19.29
2023-04-16T13:01:04.933Z,19.53
2023-04-16T13:06:01.774Z,19.56
2023-04-16T13:10:58.515Z,19.81
2023-04-16T13:15:55.929Z,20.03
2023-04-16T13:20:52.849Z,20.04
2023-04-16T13:25:50.642Z,19.29
2023-04-16T13:36:51.639Z,18.18
2023-04-16T13:41:48.432Z,17.42
2023-04-16T13:53:01.868Z,17.58
2023-04-16T13:57:58.783Z,17.33
2023-04-16T14:02:55.638Z,17.15
2023-04-16T14:07:52.230Z,17.97
2023-04-16T14:12:50.126Z,18.01
2023-04-16T14:17:46.906Z,17.48
2023-04-16T14:22:46.742Z,17.39
2023-04-16T14:27:43.410Z,16.97
2023-04-16T14:32:40.724Z,16.76
2023-04-16T14:37:38.282Z,16.86
2023-04-16T14:42:36.056Z,16.92
2023-04-16T14:47:33.582Z,17.07
2023-04-16T14:52:31.500Z,17.03
2023-04-16T14:57:28.290Z,17.07
2023-04-16T15:02:25.476Z,16.92
2023-04-16T15:07:22.256Z,17.00
2023-04-16T15:12:19.422Z,17.26
2023-04-16T15:17:15.978Z,17.21
2023-04-16T15:22:14.156Z,17.24
2023-04-16T15:27:12.012Z,17.05
2023-04-16T15:32:09.333Z,17.16
2023-04-16T15:37:09.152Z,17.22
2023-04-16T15:42:07.310Z,17.35
2023-04-16T15:47:05.922Z,16.91
2023-04-16T15:52:03.389Z,16.59
2023-04-16T15:57:00.147Z,16.32
2023-04-16T16:01:56.819Z,16.23
2023-04-16T16:06:53.631Z,16.15
2023-04-16T16:11:51.022Z,15.95
2023-04-16T16:16:47.768Z,16.17
2023-04-16T16:21:44.488Z,16.23
2023-04-16T16:26:41.334Z,15.96
2023-04-16T16:31:38.944Z,15.85
2023-04-16T16:36:37.488Z,15.97
2023-04-16T16:41:36.983Z,16.10
2023-04-16T16:46:33.574Z,16.20
2023-04-16T16:51:32.976Z,16.10
2023-04-16T16:56:29.708Z,15.99
2023-04-16T17:01:29.129Z,15.76
2023-04-16T17:06:26.525Z,15.88
2023-04-16T17:11:26.349Z,15.56
2023-04-16T17:16:23.569Z,15.82
2023-04-16T17:21:20.400Z,16.10
2023-04-16T17:26:17.006Z,15.60
2023-04-16T17:31:15.344Z,16.01
2023-04-16T17:36:12.025Z,15.71
2023-04-16T17:41:08.627Z,15.57
2023-04-16T17:46:05.336Z,15.72
2023-04-16T17:51:09.101Z,15.80
2023-04-16T17:56:06.472Z,15.95
2023-04-16T18:01:03.627Z,16.20
2023-04-16T18:06:00.429Z,15.93
2023-04-16T18:10:57.696Z,15.69
2023-04-16T18:15:54.376Z,15.77
2023-04-16T18:20:52.135Z,15.55
2023-04-16T18:25:49.707Z,15.56
2023-04-16T18:30:47.466Z,15.43
2023-04-16T18:35:44.617Z,15.27
2023-04-16T18:40:41.751Z,15.23
2023-04-16T18:45:38.507Z,15.10
2023-04-16T18:50:35.858Z,15.09
2023-04-16T18:55:33.754Z,15.21
2023-04-16T19:00:31.507Z,15.13
2023-04-16T19:05:28.535Z,15.27
2023-04-16T19:10:25.848Z,15.18
2023-04-16T19:15:22.595Z,15.31
2023-04-16T19:20:22.316Z,15.13
2023-04-16T19:25:20.543Z,15.20
2023-04-16T19:30:21.173Z,15.34
2023-04-16T19:35:29.577Z,15.02
2023-04-16T19:40:29.133Z,14.93
2023-04-16T19:45:26.986Z,14.86
2023-04-16T19:50:23.796Z,14.93
2023-04-16T19:55:20.383Z,14.49
2023-04-16T20:00:17.461Z,14.25
2023-04-16T20:05:17.798Z,14.30
2023-04-16T20:10:14.752Z,14.30
2023-04-16T20:15:11.625Z,13.98
2023-04-16T20:20:11.739Z,14.05
2023-04-16T20:25:09.842Z,14.19
2023-04-16T20:30:06.991Z,14.00
2023-04-16T20:35:04.943Z,13.85
2023-04-16T20:40:01.600Z,14.21
2023-04-16T20:45:00.556Z,13.81
2023-04-16T20:49:57.606Z,14.15
2023-04-16T20:54:54.202Z,14.16
2023-04-16T20:59:50.867Z,14.12
2023-04-16T21:04:48.466Z,14.00
2023-04-16T21:09:45.257Z,13.77
2023-04-16T21:14:41.915Z,13.95
2023-04-16T21:19:39.574Z,13.69
2023-04-16T21:24:37.869Z,13.76
2023-04-16T21:29:34.644Z,13.28
2023-04-16T21:34:31.276Z,13.39
2023-04-16T21:39:30.288Z,13.64
2023-04-16T21:44:27.510Z,13.66
2023-04-16T21:49:24.145Z,13.68
2023-04-16T21:54:22.255Z,13.48
2023-04-16T21:59:18.873Z,13.57
2023-04-16T22:04:17.248Z,13.61
2023-04-16T22:09:14.818Z,13.46
2023-04-16T22:14:11.604Z,13.11
2023-04-16T22:19:11.724Z,13.56
2023-04-16T22:24:09.290Z,13.41
2023-04-16T22:29:05.978Z,13.24
2023-04-16T22:34:03.626Z,13.05
2023-04-16T22:39:00.448Z,13.06
2023-04-16T22:43:57.669Z,12.77
2023-04-16T22:48:54.403Z,12.97
2023-04-16T22:53:51.562Z,13.04
2023-04-16T22:58:49.034Z,13.25
2023-04-16T23:03:46.408Z,13.24
2023-04-16T23:08:44.355Z,13.24
2023-04-16T23:13:42.091Z,13.35
2023-04-16T23:18:38.720Z,13.01
2023-04-16T23:23:36.042Z,12.91
2023-04-16T23:28:32.593Z,12.87
2023-04-16T23:33:29.182Z,12.74
2023-04-16T23:38:25.852Z,12.81
2023-04-16T23:43:24.841Z,12.65
2023-04-16T23:48:21.318Z,12.74
2023-04-16T23:53:17.886Z,12.68
2023-04-16T23:58:14.507Z,12.68
